GIA319 WARR-WIII
Flight info
| Callsign | GIA319 |
|---|---|
| Flight time | 1h 5m |
| Altitude | 36000 |
| Route | LASEM T2 KALUT T6 KURUS |
| Aircraft | B38M/M-SDE1FGHILORVWXY/HB1 |
Departure
| Time | 2026-05-05 01:23 |
|---|---|
| Airport | Juanda International Airport (WARR) |
Arrival
| Time | 2026-05-05 02:28 |
|---|---|
| Airport | Soekarno-Hatta International Airport (WIII) |
| Time | Latitude | Longitude | Altitude | Speed | Heading |
|---|---|---|---|---|---|
| 2026-05-05 01:02 | -7.37610 | 112.79591 | 18 ft | 0 kts | 9° |
| 2026-05-05 01:09 | -7.37610 | 112.79590 | 18 ft | 1 kts | 9° |
| 2026-05-05 01:10 | -7.37624 | 112.79588 | 18 ft | 3 kts | 9° |
| 2026-05-05 01:10 | -7.37637 | 112.79586 | 18 ft | 2 kts | 8° |
| 2026-05-05 01:10 | -7.37654 | 112.79579 | 18 ft | 3 kts | 36° |
| 2026-05-05 01:10 | -7.37667 | 112.79564 | 18 ft | 3 kts | 64° |
| 2026-05-05 01:11 | -7.37671 | 112.79544 | 18 ft | 3 kts | 91° |
| 2026-05-05 01:11 | -7.37669 | 112.79526 | 18 ft | 0 kts | 98° |
| 2026-05-05 01:16 | -7.37669 | 112.79527 | 18 ft | 1 kts | 98° |
| 2026-05-05 01:16 | -7.37674 | 112.79551 | 18 ft | 3 kts | 105° |
| 2026-05-05 01:17 | -7.37685 | 112.79578 | 18 ft | 9 kts | 113° |
| 2026-05-05 01:17 | -7.37712 | 112.79668 | 18 ft | 18 kts | 101° |
| 2026-05-05 01:17 | -7.37731 | 112.79791 | 18 ft | 16 kts | 98° |
| 2026-05-05 01:17 | -7.37748 | 112.79893 | 18 ft | 13 kts | 100° |
| 2026-05-05 01:18 | -7.37770 | 112.79969 | 18 ft | 10 kts | 147° |
| 2026-05-05 01:18 | -7.37819 | 112.79964 | 18 ft | 6 kts | 230° |
| 2026-05-05 01:18 | -7.37827 | 112.79934 | 18 ft | 3 kts | 272° |
| 2026-05-05 01:18 | -7.37823 | 112.79900 | 18 ft | 8 kts | 276° |
| 2026-05-05 01:19 | -7.37820 | 112.79828 | 18 ft | 12 kts | 250° |
| 2026-05-05 01:19 | -7.37880 | 112.79789 | 18 ft | 9 kts | 189° |
| 2026-05-05 01:19 | -7.37935 | 112.79782 | 18 ft | 8 kts | 180° |
| 2026-05-05 01:19 | -7.37991 | 112.79823 | 18 ft | 13 kts | 106° |
| 2026-05-05 01:20 | -7.38007 | 112.79917 | 18 ft | 12 kts | 97° |
| 2026-05-05 01:20 | -7.38019 | 112.79993 | 18 ft | 10 kts | 111° |
| 2026-05-05 01:20 | -7.38058 | 112.80033 | 18 ft | 7 kts | 162° |
| 2026-05-05 01:20 | -7.38093 | 112.80037 | 18 ft | 4 kts | 186° |
| 2026-05-05 01:21 | -7.38113 | 112.80035 | 18 ft | 3 kts | 186° |
| 2026-05-05 01:21 | -7.38161 | 112.80022 | 18 ft | 11 kts | 213° |
| 2026-05-05 01:21 | -7.38188 | 112.79955 | 18 ft | 5 kts | 282° |
| 2026-05-05 01:21 | -7.38188 | 112.79954 | 18 ft | 1 kts | 282° |
| 2026-05-05 01:22 | -7.38155 | 112.79753 | 18 ft | 62 kts | 279° |
| 2026-05-05 01:22 | -7.38051 | 112.79107 | 18 ft | 123 kts | 279° |
| 2026-05-05 01:22 | -7.37946 | 112.78467 | 20 ft | 156 kts | 280° |
| 2026-05-05 01:22 | -7.37744 | 112.77310 | 386 ft | 171 kts | 278° |
| 2026-05-05 01:23 | -7.37549 | 112.76127 | 1098 ft | 175 kts | 278° |
| 2026-05-05 01:23 | -7.37282 | 112.74382 | 1680 ft | 199 kts | 278° |
| 2026-05-05 01:23 | -7.37129 | 112.73446 | 1931 ft | 210 kts | 277° |
| 2026-05-05 01:23 | -7.36888 | 112.71939 | 2322 ft | 227 kts | 278° |
| 2026-05-05 01:24 | -7.36629 | 112.70308 | 2748 ft | 244 kts | 278° |
| 2026-05-05 01:24 | -7.36345 | 112.68561 | 3235 ft | 261 kts | 278° |
| 2026-05-05 01:24 | -7.36043 | 112.66718 | 3812 ft | 270 kts | 278° |
| 2026-05-05 01:24 | -7.35633 | 112.64215 | 4716 ft | 276 kts | 279° |
| 2026-05-05 01:25 | -7.35422 | 112.62918 | 5194 ft | 279 kts | 279° |
| 2026-05-05 01:25 | -7.35107 | 112.60982 | 5882 ft | 282 kts | 279° |
| 2026-05-05 01:25 | -7.34788 | 112.59022 | 6549 ft | 285 kts | 279° |
| 2026-05-05 01:25 | -7.34466 | 112.57042 | 7205 ft | 288 kts | 279° |
| 2026-05-05 01:26 | -7.34129 | 112.55046 | 7834 ft | 291 kts | 283° |
| 2026-05-05 01:26 | -7.33415 | 112.53137 | 8426 ft | 293 kts | 300° |
| 2026-05-05 01:26 | -7.32301 | 112.51410 | 9018 ft | 295 kts | 304° |
| 2026-05-05 01:26 | -7.31145 | 112.49723 | 9583 ft | 298 kts | 305° |
| 2026-05-05 01:27 | -7.29933 | 112.47989 | 10131 ft | 302 kts | 306° |
| 2026-05-05 01:27 | -7.28691 | 112.46208 | 10289 ft | 319 kts | 305° |
| 2026-05-05 01:27 | -7.27394 | 112.44330 | 10461 ft | 334 kts | 305° |
| 2026-05-05 01:27 | -7.26041 | 112.42359 | 10633 ft | 350 kts | 305° |
| 2026-05-05 01:28 | -7.24637 | 112.40313 | 11042 ft | 358 kts | 305° |
| 2026-05-05 01:28 | -7.23208 | 112.38235 | 11593 ft | 362 kts | 305° |
| 2026-05-05 01:28 | -7.21766 | 112.36141 | 12184 ft | 366 kts | 305° |
| 2026-05-05 01:28 | -7.20211 | 112.34151 | 12760 ft | 369 kts | 314° |
| 2026-05-05 01:29 | -7.18294 | 112.32417 | 13348 ft | 372 kts | 320° |
| 2026-05-05 01:29 | -7.16309 | 112.30735 | 13931 ft | 375 kts | 320° |
| 2026-05-05 01:29 | -7.14287 | 112.29054 | 14511 ft | 378 kts | 321° |
| 2026-05-05 01:29 | -7.12244 | 112.27363 | 15086 ft | 382 kts | 321° |
| 2026-05-05 01:30 | -7.10187 | 112.25651 | 15658 ft | 385 kts | 320° |
| 2026-05-05 01:30 | -7.08117 | 112.23917 | 16222 ft | 389 kts | 320° |
| 2026-05-05 01:30 | -7.06028 | 112.22163 | 16763 ft | 393 kts | 320° |
| 2026-05-05 01:30 | -7.03920 | 112.20397 | 17300 ft | 396 kts | 320° |
| 2026-05-05 01:31 | -7.01790 | 112.18617 | 17822 ft | 399 kts | 320° |
| 2026-05-05 01:31 | -6.99641 | 112.16822 | 18330 ft | 403 kts | 320° |
| 2026-05-05 01:31 | -6.97483 | 112.15009 | 18814 ft | 406 kts | 318° |
| 2026-05-05 01:31 | -6.95559 | 112.12913 | 19275 ft | 409 kts | 306° |
| 2026-05-05 01:32 | -6.93945 | 112.10549 | 19752 ft | 412 kts | 304° |
| 2026-05-05 01:32 | -6.92355 | 112.08140 | 20202 ft | 415 kts | 303° |
| 2026-05-05 01:32 | -6.90775 | 112.05701 | 20640 ft | 417 kts | 303° |
| 2026-05-05 01:32 | -6.89187 | 112.03242 | 21067 ft | 420 kts | 303° |
| 2026-05-05 01:33 | -6.87581 | 112.00777 | 21486 ft | 423 kts | 303° |
| 2026-05-05 01:33 | -6.85955 | 111.98302 | 21901 ft | 425 kts | 303° |
| 2026-05-05 01:33 | -6.84318 | 111.95813 | 22298 ft | 428 kts | 303° |
| 2026-05-05 01:33 | -6.82673 | 111.93307 | 22687 ft | 430 kts | 303° |
| 2026-05-05 01:34 | -6.81023 | 111.90785 | 23081 ft | 432 kts | 303° |
| 2026-05-05 01:34 | -6.79367 | 111.88251 | 23449 ft | 435 kts | 303° |
| 2026-05-05 01:34 | -6.77698 | 111.85701 | 23800 ft | 437 kts | 303° |
| 2026-05-05 01:34 | -6.76020 | 111.83140 | 24137 ft | 439 kts | 303° |
| 2026-05-05 01:35 | -6.74335 | 111.80570 | 24458 ft | 441 kts | 304° |
| 2026-05-05 01:35 | -6.72639 | 111.77983 | 24760 ft | 444 kts | 304° |
| 2026-05-05 01:35 | -6.70937 | 111.75386 | 25058 ft | 446 kts | 304° |
| 2026-05-05 01:35 | -6.69227 | 111.72777 | 25330 ft | 448 kts | 304° |
| 2026-05-05 01:36 | -6.67506 | 111.70152 | 25603 ft | 450 kts | 304° |
| 2026-05-05 01:36 | -6.65780 | 111.67519 | 25867 ft | 452 kts | 304° |
| 2026-05-05 01:36 | -6.64047 | 111.64878 | 26122 ft | 453 kts | 304° |
| 2026-05-05 01:36 | -6.62309 | 111.62225 | 26359 ft | 455 kts | 303° |
| 2026-05-05 01:37 | -6.60767 | 111.59438 | 26584 ft | 457 kts | 298° |
| 2026-05-05 01:37 | -6.59281 | 111.56606 | 26806 ft | 459 kts | 298° |
| 2026-05-05 01:37 | -6.57802 | 111.53758 | 27018 ft | 460 kts | 298° |
| 2026-05-05 01:37 | -6.56325 | 111.50899 | 27224 ft | 462 kts | 298° |
| 2026-05-05 01:38 | -6.54841 | 111.48027 | 27421 ft | 463 kts | 298° |
| 2026-05-05 01:38 | -6.53351 | 111.45157 | 27638 ft | 463 kts | 298° |
| 2026-05-05 01:38 | -6.51855 | 111.42284 | 27830 ft | 465 kts | 298° |
| 2026-05-05 01:38 | -6.50353 | 111.39400 | 27996 ft | 466 kts | 298° |
| 2026-05-05 01:39 | -6.48849 | 111.36508 | 28155 ft | 467 kts | 298° |
| 2026-05-05 01:39 | -6.47340 | 111.33602 | 28247 ft | 470 kts | 298° |
| 2026-05-05 01:39 | -6.44291 | 111.27735 | 28336 ft | 476 kts | 298° |
| 2026-05-05 01:40 | -6.41222 | 111.21834 | 28770 ft | 473 kts | 298° |
| 2026-05-05 01:40 | -6.39699 | 111.18908 | 28955 ft | 473 kts | 298° |
| 2026-05-05 01:40 | -6.38174 | 111.15976 | 29045 ft | 474 kts | 298° |
| 2026-05-05 01:41 | -6.35096 | 111.10071 | 29132 ft | 479 kts | 298° |
| 2026-05-05 01:41 | -6.31915 | 111.04156 | 29223 ft | 483 kts | 299° |
| 2026-05-05 01:42 | -6.28705 | 110.98232 | 29416 ft | 483 kts | 299° |
| 2026-05-05 01:42 | -6.27114 | 110.95256 | 29528 ft | 483 kts | 298° |
| 2026-05-05 01:42 | -6.25528 | 110.92283 | 29641 ft | 483 kts | 299° |
| 2026-05-05 01:43 | -6.23938 | 110.89316 | 29760 ft | 482 kts | 299° |
| 2026-05-05 01:43 | -6.22341 | 110.86351 | 29867 ft | 482 kts | 299° |
| 2026-05-05 01:43 | -6.20746 | 110.83391 | 29978 ft | 482 kts | 299° |
| 2026-05-05 01:43 | -6.19149 | 110.80426 | 30095 ft | 481 kts | 299° |
| 2026-05-05 01:44 | -6.17561 | 110.77470 | 30210 ft | 481 kts | 299° |
| 2026-05-05 01:44 | -6.15973 | 110.74512 | 30326 ft | 480 kts | 299° |
| 2026-05-05 01:44 | -6.14384 | 110.71555 | 30432 ft | 480 kts | 299° |
| 2026-05-05 01:44 | -6.12796 | 110.68604 | 30553 ft | 480 kts | 299° |
| 2026-05-05 01:45 | -6.11209 | 110.65655 | 30675 ft | 479 kts | 299° |
| 2026-05-05 01:45 | -6.09624 | 110.62711 | 30799 ft | 479 kts | 299° |
| 2026-05-05 01:45 | -6.08041 | 110.59768 | 30926 ft | 478 kts | 299° |
| 2026-05-05 01:45 | -6.06460 | 110.56831 | 31047 ft | 478 kts | 299° |
| 2026-05-05 01:46 | -6.04877 | 110.53889 | 31170 ft | 478 kts | 299° |
| 2026-05-05 01:46 | -6.03300 | 110.50960 | 31301 ft | 477 kts | 299° |
| 2026-05-05 01:46 | -6.01739 | 110.48062 | 31430 ft | 476 kts | 299° |
| 2026-05-05 01:46 | -6.00164 | 110.45139 | 31566 ft | 476 kts | 299° |
| 2026-05-05 01:47 | -5.98592 | 110.42216 | 31679 ft | 476 kts | 298° |
| 2026-05-05 01:47 | -5.97309 | 110.39146 | 31823 ft | 477 kts | 288° |
| 2026-05-05 01:47 | -5.96615 | 110.35890 | 31962 ft | 477 kts | 277° |
| 2026-05-05 01:47 | -5.96471 | 110.32560 | 32083 ft | 478 kts | 271° |
| 2026-05-05 01:48 | -5.96449 | 110.29221 | 32196 ft | 478 kts | 270° |
| 2026-05-05 01:48 | -5.96477 | 110.25884 | 32343 ft | 477 kts | 270° |
| 2026-05-05 01:48 | -5.96514 | 110.22553 | 32486 ft | 477 kts | 270° |
| 2026-05-05 01:48 | -5.96526 | 110.19227 | 32625 ft | 476 kts | 271° |
| 2026-05-05 01:49 | -5.96514 | 110.15907 | 32769 ft | 476 kts | 271° |
| 2026-05-05 01:49 | -5.96497 | 110.12587 | 32915 ft | 475 kts | 271° |
| 2026-05-05 01:49 | -5.96490 | 110.09270 | 33062 ft | 475 kts | 271° |
| 2026-05-05 01:49 | -5.96493 | 110.05957 | 33211 ft | 474 kts | 271° |
| 2026-05-05 01:50 | -5.96499 | 110.02650 | 33349 ft | 474 kts | 271° |
| 2026-05-05 01:50 | -5.96501 | 109.99339 | 33491 ft | 473 kts | 271° |
| 2026-05-05 01:50 | -5.96498 | 109.96037 | 33636 ft | 473 kts | 271° |
| 2026-05-05 01:50 | -5.96493 | 109.92736 | 33786 ft | 472 kts | 271° |
| 2026-05-05 01:51 | -5.96489 | 109.89439 | 33913 ft | 472 kts | 271° |
| 2026-05-05 01:51 | -5.96488 | 109.86128 | 33919 ft | 474 kts | 271° |
| 2026-05-05 01:51 | -5.96485 | 109.79494 | 33926 ft | 475 kts | 271° |
| 2026-05-05 01:52 | -5.96479 | 109.72863 | 33927 ft | 475 kts | 271° |
| 2026-05-05 01:52 | -5.96472 | 109.66232 | 33927 ft | 474 kts | 271° |
| 2026-05-05 01:53 | -5.96465 | 109.59631 | 33927 ft | 471 kts | 271° |
| 2026-05-05 01:53 | -5.96457 | 109.53050 | 33915 ft | 471 kts | 271° |
| 2026-05-05 01:54 | -5.96448 | 109.46481 | 33931 ft | 470 kts | 271° |
| 2026-05-05 01:54 | -5.96438 | 109.39919 | 33918 ft | 469 kts | 271° |
| 2026-05-05 01:55 | -5.96428 | 109.33374 | 33929 ft | 469 kts | 271° |
| 2026-05-05 01:55 | -5.96417 | 109.26813 | 33930 ft | 470 kts | 271° |
| 2026-05-05 01:56 | -5.96405 | 109.20234 | 33930 ft | 471 kts | 271° |
| 2026-05-05 01:56 | -5.96392 | 109.13645 | 33931 ft | 472 kts | 271° |
| 2026-05-05 01:57 | -5.96379 | 109.07046 | 33928 ft | 472 kts | 270° |
| 2026-05-05 01:57 | -5.96364 | 109.00474 | 33939 ft | 469 kts | 270° |
| 2026-05-05 01:58 | -5.96350 | 108.93944 | 33931 ft | 467 kts | 270° |
| 2026-05-05 01:58 | -5.96334 | 108.87409 | 33932 ft | 468 kts | 270° |
| 2026-05-05 01:59 | -5.96317 | 108.80856 | 33932 ft | 470 kts | 270° |
| 2026-05-05 01:59 | -5.96300 | 108.74322 | 33932 ft | 471 kts | 270° |
| 2026-05-05 02:00 | -5.96282 | 108.67729 | 33932 ft | 472 kts | 270° |
| 2026-05-05 02:00 | -5.96263 | 108.61124 | 33932 ft | 473 kts | 270° |
| 2026-05-05 02:01 | -5.96243 | 108.54503 | 33932 ft | 474 kts | 270° |
| 2026-05-05 02:01 | -5.96222 | 108.47872 | 33932 ft | 474 kts | 270° |
| 2026-05-05 02:02 | -5.96213 | 108.41249 | 33931 ft | 473 kts | 270° |
| 2026-05-05 02:02 | -5.96214 | 108.34647 | 33931 ft | 473 kts | 270° |
| 2026-05-05 02:03 | -5.96206 | 108.28044 | 33931 ft | 473 kts | 270° |
| 2026-05-05 02:03 | -5.96197 | 108.21436 | 33931 ft | 473 kts | 270° |
| 2026-05-05 02:04 | -5.96192 | 108.15949 | 33931 ft | 473 kts | 270° |
| 2026-05-05 02:04 | -5.96188 | 108.12644 | 33556 ft | 474 kts | 270° |
| 2026-05-05 02:04 | -5.96183 | 108.09338 | 32906 ft | 472 kts | 270° |
| 2026-05-05 02:05 | -5.96178 | 108.06053 | 32298 ft | 470 kts | 270° |
| 2026-05-05 02:05 | -5.96173 | 108.02780 | 31700 ft | 467 kts | 270° |
| 2026-05-05 02:05 | -5.96168 | 107.99527 | 31107 ft | 464 kts | 270° |
| 2026-05-05 02:05 | -5.96164 | 107.96295 | 30526 ft | 462 kts | 270° |
| 2026-05-05 02:06 | -5.96165 | 107.93076 | 29950 ft | 459 kts | 270° |
| 2026-05-05 02:06 | -5.96168 | 107.89880 | 29379 ft | 457 kts | 270° |
| 2026-05-05 02:06 | -5.96171 | 107.86694 | 28809 ft | 454 kts | 270° |
| 2026-05-05 02:06 | -5.96171 | 107.83549 | 28243 ft | 446 kts | 270° |
| 2026-05-05 02:07 | -5.96170 | 107.80464 | 27693 ft | 437 kts | 270° |
| 2026-05-05 02:07 | -5.96169 | 107.77426 | 27152 ft | 434 kts | 270° |
| 2026-05-05 02:07 | -5.96168 | 107.74399 | 26611 ft | 433 kts | 270° |
| 2026-05-05 02:07 | -5.96168 | 107.71378 | 26070 ft | 432 kts | 270° |
| 2026-05-05 02:08 | -5.96168 | 107.68363 | 25531 ft | 431 kts | 270° |
| 2026-05-05 02:08 | -5.96167 | 107.65352 | 24992 ft | 430 kts | 270° |
| 2026-05-05 02:08 | -5.96166 | 107.62351 | 24453 ft | 429 kts | 270° |
| 2026-05-05 02:08 | -5.96167 | 107.59349 | 23912 ft | 429 kts | 270° |
| 2026-05-05 02:09 | -5.96169 | 107.56360 | 23374 ft | 428 kts | 270° |
| 2026-05-05 02:09 | -5.96169 | 107.53381 | 22832 ft | 424 kts | 270° |
| 2026-05-05 02:09 | -5.96170 | 107.50454 | 22308 ft | 415 kts | 270° |
| 2026-05-05 02:09 | -5.96169 | 107.47586 | 21792 ft | 406 kts | 270° |
| 2026-05-05 02:10 | -5.96169 | 107.44776 | 21286 ft | 399 kts | 270° |
| 2026-05-05 02:10 | -5.96169 | 107.42020 | 20790 ft | 391 kts | 270° |
| 2026-05-05 02:10 | -5.96168 | 107.39314 | 20303 ft | 383 kts | 270° |
| 2026-05-05 02:10 | -5.96168 | 107.36663 | 19826 ft | 376 kts | 270° |
| 2026-05-05 02:11 | -5.96167 | 107.34048 | 19358 ft | 374 kts | 270° |
| 2026-05-05 02:11 | -5.96167 | 107.31432 | 18887 ft | 373 kts | 270° |
| 2026-05-05 02:11 | -5.96165 | 107.28829 | 18423 ft | 372 kts | 270° |
| 2026-05-05 02:11 | -5.96160 | 107.26239 | 17963 ft | 370 kts | 270° |
| 2026-05-05 02:12 | -5.96155 | 107.23658 | 17504 ft | 369 kts | 270° |
| 2026-05-05 02:12 | -5.96146 | 107.18571 | 16598 ft | 364 kts | 270° |
| 2026-05-05 02:12 | -5.96142 | 107.16037 | 16147 ft | 362 kts | 270° |
| 2026-05-05 02:13 | -5.96138 | 107.13489 | 15694 ft | 359 kts | 270° |
| 2026-05-05 02:13 | -5.96134 | 107.10993 | 15250 ft | 356 kts | 270° |
| 2026-05-05 02:13 | -5.96129 | 107.08522 | 14810 ft | 352 kts | 270° |
| 2026-05-05 02:13 | -5.96124 | 107.06072 | 14375 ft | 349 kts | 270° |
| 2026-05-05 02:14 | -5.96120 | 107.03651 | 13944 ft | 345 kts | 270° |
| 2026-05-05 02:14 | -5.96115 | 107.01278 | 13484 ft | 342 kts | 270° |
| 2026-05-05 02:14 | -5.96109 | 106.98901 | 13058 ft | 338 kts | 270° |
| 2026-05-05 02:14 | -5.96103 | 106.96554 | 12620 ft | 334 kts | 270° |
| 2026-05-05 02:15 | -5.96097 | 106.94230 | 12172 ft | 331 kts | 270° |
| 2026-05-05 02:15 | -5.96091 | 106.91934 | 11725 ft | 327 kts | 270° |
| 2026-05-05 02:15 | -5.96085 | 106.89662 | 11281 ft | 323 kts | 270° |
| 2026-05-05 02:15 | -5.96079 | 106.87413 | 10841 ft | 321 kts | 270° |
| 2026-05-05 02:16 | -5.96073 | 106.85180 | 10404 ft | 319 kts | 270° |
| 2026-05-05 02:16 | -5.96067 | 106.82993 | 10236 ft | 306 kts | 270° |
| 2026-05-05 02:16 | -5.96061 | 106.80902 | 10117 ft | 293 kts | 270° |
| 2026-05-05 02:16 | -5.96190 | 106.78889 | 10004 ft | 286 kts | 258° |
| 2026-05-05 02:17 | -5.96797 | 106.76972 | 9651 ft | 291 kts | 249° |
| 2026-05-05 02:17 | -5.97543 | 106.75081 | 9221 ft | 291 kts | 247° |
| 2026-05-05 02:17 | -5.98317 | 106.73208 | 8810 ft | 290 kts | 247° |
| 2026-05-05 02:17 | -5.99091 | 106.71341 | 8405 ft | 288 kts | 247° |
| 2026-05-05 02:18 | -5.99850 | 106.69484 | 8006 ft | 287 kts | 247° |
| 2026-05-05 02:18 | -6.00599 | 106.67629 | 7609 ft | 285 kts | 248° |
| 2026-05-05 02:18 | -6.01342 | 106.65786 | 7214 ft | 284 kts | 247° |
| 2026-05-05 02:18 | -6.02081 | 106.63953 | 6823 ft | 282 kts | 247° |
| 2026-05-05 02:19 | -6.02818 | 106.62132 | 6444 ft | 281 kts | 247° |
| 2026-05-05 02:19 | -6.03553 | 106.60319 | 6101 ft | 278 kts | 247° |
| 2026-05-05 02:19 | -6.04264 | 106.58562 | 5995 ft | 265 kts | 247° |
| 2026-05-05 02:19 | -6.04951 | 106.56863 | 5697 ft | 262 kts | 247° |
| 2026-05-05 02:20 | -6.05636 | 106.55169 | 5334 ft | 261 kts | 247° |
| 2026-05-05 02:20 | -6.06317 | 106.53481 | 4976 ft | 260 kts | 248° |
| 2026-05-05 02:20 | -6.06996 | 106.51798 | 4620 ft | 259 kts | 248° |
| 2026-05-05 02:20 | -6.07664 | 106.50143 | 4269 ft | 253 kts | 248° |
| 2026-05-05 02:21 | -6.08317 | 106.48526 | 3940 ft | 247 kts | 248° |
| 2026-05-05 02:21 | -6.08955 | 106.46946 | 3608 ft | 241 kts | 248° |
| 2026-05-05 02:21 | -6.09579 | 106.45400 | 3275 ft | 236 kts | 248° |
| 2026-05-05 02:21 | -6.10184 | 106.43902 | 3103 ft | 226 kts | 247° |
| 2026-05-05 02:22 | -6.11088 | 106.42638 | 3044 ft | 225 kts | 214° |
| 2026-05-05 02:22 | -6.12571 | 106.42177 | 2896 ft | 230 kts | 180° |
| 2026-05-05 02:22 | -6.14172 | 106.42323 | 2641 ft | 230 kts | 169° |
| 2026-05-05 02:22 | -6.15732 | 106.42677 | 2343 ft | 229 kts | 165° |
| 2026-05-05 02:23 | -6.17101 | 106.43433 | 2050 ft | 225 kts | 132° |
| 2026-05-05 02:23 | -6.17725 | 106.44784 | 2016 ft | 207 kts | 100° |
| 2026-05-05 02:23 | -6.17884 | 106.46197 | 2005 ft | 200 kts | 95° |
| 2026-05-05 02:23 | -6.18018 | 106.47543 | 2003 ft | 189 kts | 95° |
| 2026-05-05 02:24 | -6.17975 | 106.48840 | 1998 ft | 184 kts | 77° |
| 2026-05-05 02:24 | -6.17556 | 106.50039 | 2003 ft | 180 kts | 68° |
| 2026-05-05 02:24 | -6.17094 | 106.51201 | 2004 ft | 179 kts | 68° |
| 2026-05-05 02:24 | -6.16638 | 106.52355 | 2005 ft | 175 kts | 68° |
| 2026-05-05 02:25 | -6.16201 | 106.53462 | 2026 ft | 171 kts | 68° |
| 2026-05-05 02:25 | -6.15755 | 106.54592 | 1992 ft | 176 kts | 68° |
| 2026-05-05 02:25 | -6.15308 | 106.55726 | 1764 ft | 170 kts | 68° |
| 2026-05-05 02:25 | -6.14885 | 106.56797 | 1540 ft | 161 kts | 68° |
| 2026-05-05 02:26 | -6.14485 | 106.57812 | 1335 ft | 153 kts | 68° |
| 2026-05-05 02:26 | -6.14099 | 106.58791 | 1134 ft | 149 kts | 67° |
| 2026-05-05 02:26 | -6.13717 | 106.59759 | 940 ft | 150 kts | 67° |
| 2026-05-05 02:26 | -6.13334 | 106.60734 | 758 ft | 150 kts | 67° |
| 2026-05-05 02:27 | -6.12945 | 106.61723 | 548 ft | 153 kts | 67° |
| 2026-05-05 02:27 | -6.12553 | 106.62716 | 343 ft | 153 kts | 68° |
| 2026-05-05 02:27 | -6.12165 | 106.63708 | 134 ft | 152 kts | 67° |
| 2026-05-05 02:27 | -6.11783 | 106.64677 | 46 ft | 142 kts | 67° |
| 2026-05-05 02:28 | -6.11460 | 106.65489 | 43 ft | 107 kts | 68° |
| 2026-05-05 02:28 | -6.11247 | 106.66023 | 43 ft | 51 kts | 68° |
| 2026-05-05 02:28 | -6.11122 | 106.66334 | 43 ft | 43 kts | 69° |
| 2026-05-05 02:28 | -6.11020 | 106.66594 | 43 ft | 37 kts | 67° |
| 2026-05-05 02:29 | -6.10975 | 106.66743 | 43 ft | 12 kts | 101° |
| 2026-05-05 02:29 | -6.11025 | 106.66792 | 43 ft | 10 kts | 157° |
| 2026-05-05 02:29 | -6.11081 | 106.66812 | 43 ft | 8 kts | 160° |
| 2026-05-05 02:29 | -6.11131 | 106.66832 | 43 ft | 9 kts | 158° |
| 2026-05-05 02:30 | -6.11208 | 106.66865 | 43 ft | 14 kts | 156° |
| 2026-05-05 02:30 | -6.11293 | 106.66901 | 43 ft | 12 kts | 159° |
| 2026-05-05 02:30 | -6.11365 | 106.66929 | 43 ft | 10 kts | 159° |
| 2026-05-05 02:30 | -6.11411 | 106.66953 | 43 ft | 5 kts | 119° |
| 2026-05-05 02:31 | -6.11407 | 106.66981 | 43 ft | 4 kts | 70° |
| 2026-05-05 02:31 | -6.11399 | 106.67001 | 43 ft | 4 kts | 68° |
| 2026-05-05 02:31 | -6.11391 | 106.67022 | 43 ft | 0 kts | 66° |